LFBT 181530Z AUTO 27013KT 9999 FEW018/// BKN066/// OVC082/// //////TCU 20/15 Q1019 TEMPO 4000 SHRA

ElémentsDécodage
LFBT Station météo située sur l'aérodrome de TARBES Lourdes-Pyrénées
181530Z émis le 18 du mois à 15h30 UTC
AUTO Bulletin édité par un automate
27013KT vent du 270°, 13 noeuds
9999 visibilité horizontale supérieure à 10 Km
FEW018/// nuages rares (1/8 à 2/8) à 1800 pieds
 type de nuage non observable
BKN066/// nuages morcelés (5/8 à 7/8) à 6600 pieds
 type de nuage non observable
OVC082/// couverture nuageuse totale (8/8) à 8200 pieds
 type de nuage non observable
//////TCU nébulosité (type et hauteur) non disponible
 présence de cumulus congestus
20/15 température 20°C, point de rosée 15°C
 soit une humidité relative de 73%
Q1019 la pression au niveau de la mer (QNH) est de 1019 hPa
TEMPO fluctuation temporaire prévue
4000 visibilité horizontale de 4000 mètres
SHRA averse(s) de pluie